Time;durP1;ratioP1;P1;durP2;ratioP2;P2;SDS_P1;SDS_P2;PMS_P1;PMS_P2;Temp;Humidity;BMP_temperature;BMP_pressure;BME280_temperature;BME280_humidity;BME280_pressure;Samples;Min_cycle;Max_cycle;Signal;HPM_P1;HPM_P2
2022/07/13 00:00:01;;;;;;;1.67;0.75;;;12.50;99.90;;;;;;4983262;28;20054;-65
2022/07/13 00:02:28;;;;;;;1.35;0.65;;;12.40;99.90;;;;;;4984225;28;20027;-64
2022/07/13 00:04:55;;;;;;;6.28;1.60;;;12.30;99.90;;;;;;4986898;28;20509;-64
2022/07/13 00:07:22;;;;;;;5.30;1.23;;;12.40;99.90;;;;;;4984122;28;20053;-64
2022/07/13 00:09:49;;;;;;;3.47;0.98;;;12.40;99.90;;;;;;4984045;28;20044;-64
2022/07/13 00:12:16;;;;;;;3.35;0.70;;;12.40;99.90;;;;;;4982548;28;20038;-65
2022/07/13 00:14:43;;;;;;;1.13;0.50;;;12.50;99.90;;;;;;4987954;28;20026;-65
2022/07/13 00:17:10;;;;;;;4.00;0.70;;;12.50;99.90;;;;;;4990728;28;20029;-65
2022/07/13 00:19:37;;;;;;;4.63;0.70;;;12.70;99.90;;;;;;4984814;28;20027;-64
2022/07/13 00:22:04;;;;;;;1.55;0.77;;;12.80;99.90;;;;;;4982900;28;20072;-64
2022/07/13 00:24:31;;;;;;;1.65;0.75;;;13.00;99.90;;;;;;4985698;28;20019;-64
2022/07/13 00:26:58;;;;;;;4.18;0.70;;;13.10;99.90;;;;;;4988559;28;20026;-64
2022/07/13 00:29:26;;;;;;;0.65;0.50;;;13.20;99.90;;;;;;4985731;28;20072;-65
2022/07/13 00:31:53;;;;;;;1.40;0.60;;;13.50;99.90;;;;;;4981674;28;20031;-64
2022/07/13 00:34:20;;;;;;;0.70;0.40;;;13.70;99.90;;;;;;4984714;28;20121;-62
2022/07/13 00:36:47;;;;;;;1.05;0.55;;;13.80;99.90;;;;;;4985223;28;20105;-64
2022/07/13 00:39:14;;;;;;;0.68;0.43;;;13.60;99.90;;;;;;4986860;28;20028;-65
2022/07/13 00:41:48;;;;;;;3.13;0.70;;;13.50;99.90;;;;;;4980898;28;20027;-64
2022/07/13 00:44:16;;;;;;;1.58;0.70;;;13.50;99.90;;;;;;4984165;28;20022;-65
2022/07/13 00:46:54;;;;;;;1.63;0.60;;;13.60;99.90;;;;;;4985193;28;20604;-64
2022/07/13 00:49:22;;;;;;;0.93;0.45;;;13.40;99.90;;;;;;4984547;28;20411;-65
2022/07/13 00:51:50;;;;;;;2.70;0.55;;;13.40;99.90;;;;;;4980503;28;20370;-64
2022/07/13 00:54:20;;;;;;;1.88;0.80;;;13.40;99.90;;;;;;4986456;28;20022;-65
2022/07/13 00:56:49;;;;;;;1.15;0.38;;;13.40;99.90;;;;;;4981561;28;20050;-64
2022/07/13 00:59:16;;;;;;;1.65;0.50;;;13.50;99.90;;;;;;4985745;28;20030;-64
2022/07/13 01:01:43;;;;;;;0.93;0.52;;;13.50;99.90;;;;;;4983026;28;20088;-63
2022/07/13 01:04:10;;;;;;;3.63;0.60;;;13.50;99.90;;;;;;4970336;28;20154;-65
2022/07/13 01:06:37;;;;;;;4.13;0.88;;;13.50;99.90;;;;;;4986852;28;20019;-63
2022/07/13 01:09:05;;;;;;;2.38;0.80;;;13.40;99.90;;;;;;4985448;28;20042;-66
2022/07/13 01:11:33;;;;;;;0.82;0.63;;;13.40;99.90;;;;;;4981661;28;20551;-62
2022/07/13 01:14:01;;;;;;;1.13;0.50;;;13.40;99.90;;;;;;4991856;28;20026;-63
2022/07/13 01:16:28;;;;;;;1.90;0.63;;;13.40;99.90;;;;;;4987631;28;20164;-64
2022/07/13 01:18:56;;;;;;;0.60;0.32;;;13.50;99.90;;;;;;4989619;28;20056;-64
2022/07/13 01:21:24;;;;;;;1.45;0.57;;;13.70;99.90;;;;;;4982553;28;20436;-65
2022/07/13 01:23:51;;;;;;;5.97;1.90;;;13.90;99.90;;;;;;4987000;28;20041;-64
2022/07/13 01:26:19;;;;;;;0.75;0.50;;;14.20;99.90;;;;;;4992890;28;20021;-65
2022/07/13 01:28:46;;;;;;;5.22;0.80;;;14.60;99.90;;;;;;4986796;28;20058;-65
2022/07/13 01:31:24;;;;;;;2.53;1.20;;;15.00;99.90;;;;;;4984084;28;20069;-64
2022/07/13 01:33:51;;;;;;;2.33;0.60;;;15.20;99.90;;;;;;4988324;28;20034;-63
2022/07/13 01:36:18;;;;;;;2.90;0.82;;;15.50;99.90;;;;;;4992841;28;20037;-64
2022/07/13 01:41:19;;;;;;;2.60;0.80;;;15.40;99.90;;;;;;4979392;28;20051;-62
2022/07/13 01:43:47;;;;;;;7.97;1.30;;;15.20;99.90;;;;;;4982867;28;20046;-62
2022/07/13 01:46:14;;;;;;;3.45;0.90;;;15.10;99.90;;;;;;4986199;28;20026;-62
2022/07/13 01:48:41;;;;;;;3.05;0.73;;;15.00;99.90;;;;;;4988774;28;20072;-64
2022/07/13 01:51:09;;;;;;;3.22;0.73;;;15.50;99.90;;;;;;4985590;28;20018;-63
2022/07/13 01:53:36;;;;;;;2.88;0.70;;;15.30;99.90;;;;;;4982342;28;20285;-63
2022/07/13 01:56:03;;;;;;;2.45;0.70;;;15.40;99.80;;;;;;4985905;28;20148;-63
2022/07/13 01:58:30;;;;;;;1.85;0.68;;;15.60;99.50;;;;;;4985559;28;20036;-64
2022/07/13 02:00:58;;;;;;;2.17;0.80;;;15.60;98.90;;;;;;4988454;28;20088;-63
2022/07/13 02:03:28;;;;;;;2.58;0.60;;;15.60;98.90;;;;;;4985610;28;20026;-62
2022/07/13 02:05:56;;;;;;;4.50;0.80;;;15.40;99.00;;;;;;4983778;28;20413;-62
2022/07/13 02:08:23;;;;;;;3.60;1.40;;;15.20;99.50;;;;;;4989416;28;20014;-62
2022/07/13 02:10:50;;;;;;;1.95;0.95;;;15.40;99.10;;;;;;4980076;28;20034;-62
2022/07/13 02:13:19;;;;;;;1.17;0.80;;;15.60;99.00;;;;;;4982891;28;20026;-62
2022/07/13 02:15:46;;;;;;;3.63;1.13;;;15.80;98.40;;;;;;4980761;28;20022;-64
2022/07/13 02:18:14;;;;;;;1.45;0.70;;;16.00;98.20;;;;;;4984253;28;20025;-63
2022/07/13 02:20:42;;;;;;;2.90;0.82;;;16.30;98.30;;;;;;4986052;28;20065;-63
2022/07/13 02:23:09;;;;;;;4.65;0.80;;;16.30;98.00;;;;;;4984228;28;20069;-64
2022/07/13 02:25:37;;;;;;;1.08;0.70;;;16.20;98.10;;;;;;4985525;28;20389;-63
2022/07/13 02:28:06;;;;;;;2.65;0.73;;;16.20;98.10;;;;;;4985755;28;20417;-62
2022/07/13 02:30:35;;;;;;;4.38;0.77;;;16.20;98.00;;;;;;4987095;28;20141;-64
2022/07/13 02:33:02;;;;;;;1.85;1.10;;;16.30;97.60;;;;;;4988491;28;20030;-63
2022/07/13 02:35:29;;;;;;;3.20;0.82;;;16.50;97.50;;;;;;4989103;28;20365;-62
2022/07/13 02:37:57;;;;;;;2.15;0.80;;;16.70;97.00;;;;;;4988399;28;20057;-63
2022/07/13 02:40:24;;;;;;;1.48;0.73;;;17.00;97.40;;;;;;4988423;28;20364;-61
2022/07/13 02:42:51;;;;;;;1.15;0.50;;;17.00;95.60;;;;;;4988474;28;20031;-63
2022/07/13 02:45:18;;;;;;;2.05;0.52;;;16.90;95.60;;;;;;4988860;28;20026;-61
2022/07/13 02:47:45;;;;;;;3.33;0.60;;;16.90;95.70;;;;;;4988889;28;20073;-63
2022/07/13 02:50:12;;;;;;;0.73;0.40;;;17.00;96.00;;;;;;4988006;28;20034;-62
2022/07/13 02:52:40;;;;;;;1.52;0.70;;;17.10;96.30;;;;;;4989333;28;20023;-63
2022/07/13 02:55:07;;;;;;;4.82;0.80;;;17.50;95.80;;;;;;4987624;28;20035;-63
2022/07/13 02:57:34;;;;;;;1.63;0.50;;;17.50;95.20;;;;;;4988579;28;20036;-65
2022/07/13 03:00:01;;;;;;;3.50;0.70;;;17.00;95.50;;;;;;4988002;28;20082;-63
2022/07/13 03:02:28;;;;;;;1.52;0.50;;;16.90;95.80;;;;;;4990219;28;20030;-62
2022/07/13 03:04:55;;;;;;;2.22;0.90;;;16.60;96.30;;;;;;4988124;28;20555;-62
2022/07/13 03:07:22;;;;;;;2.08;0.50;;;16.60;96.70;;;;;;4987908;28;20567;-62
2022/07/13 03:09:50;;;;;;;4.50;0.65;;;16.60;96.00;;;;;;4988483;28;20501;-63
2022/07/13 03:12:17;;;;;;;2.22;0.60;;;16.20;96.90;;;;;;4987971;28;20556;-62
2022/07/13 03:14:44;;;;;;;1.55;0.30;;;16.20;96.80;;;;;;4988341;28;20037;-61
2022/07/13 03:17:11;;;;;;;2.17;0.40;;;16.00;97.00;;;;;;4989837;28;20033;-61
2022/07/13 03:19:38;;;;;;;3.08;0.40;;;15.90;96.80;;;;;;4989209;28;20064;-62
2022/07/13 03:22:05;;;;;;;1.27;0.47;;;15.80;97.20;;;;;;4989710;28;20018;-62
2022/07/13 03:24:33;;;;;;;2.40;0.52;;;16.00;96.70;;;;;;4989170;28;20033;-61
2022/07/13 03:27:00;;;;;;;2.22;0.50;;;16.10;96.30;;;;;;4988979;28;20084;-63
2022/07/13 03:29:28;;;;;;;0.80;0.40;;;16.20;95.90;;;;;;4987150;28;20112;-63
2022/07/13 03:31:55;;;;;;;1.15;0.40;;;16.20;96.50;;;;;;4986041;28;20030;-62
2022/07/13 03:34:22;;;;;;;2.28;0.45;;;16.40;96.50;;;;;;4986952;28;20037;-62
2022/07/13 03:36:49;;;;;;;4.00;0.77;;;16.50;96.20;;;;;;4987407;28;20113;-62
2022/07/13 03:39:16;;;;;;;1.88;0.60;;;16.40;95.70;;;;;;4987307;28;20470;-61
2022/07/13 03:41:43;;;;;;;2.97;0.60;;;16.60;95.20;;;;;;4987565;28;20030;-63
2022/07/13 03:44:12;;;;;;;1.85;0.50;;;16.80;95.40;;;;;;4984923;28;20038;-61
2022/07/13 03:46:40;;;;;;;1.75;0.60;;;16.90;94.60;;;;;;4986926;28;20238;-63
2022/07/13 03:49:08;;;;;;;0.98;0.35;;;16.70;94.90;;;;;;4986195;28;20400;-61
2022/07/13 03:51:38;;;;;;;1.95;0.47;;;16.50;94.10;;;;;;4986833;28;20544;-61
2022/07/13 03:54:05;;;;;;;0.82;0.50;;;16.20;94.00;;;;;;4987866;28;20019;-62
2022/07/13 03:56:32;;;;;;;1.65;0.52;;;16.20;94.60;;;;;;4987811;28;20022;-62
2022/07/13 03:58:59;;;;;;;2.35;0.60;;;16.20;94.40;;;;;;4988637;28;20033;-63
2022/07/13 04:01:26;;;;;;;0.85;0.45;;;15.80;94.90;;;;;;4989753;28;20098;-61
2022/07/13 04:03:53;;;;;;;2.08;0.65;;;15.80;95.00;;;;;;4298309;28;10000821;-62
2022/07/13 04:06:20;;;;;;;1.73;0.57;;;15.90;94.70;;;;;;4984817;28;20089;-61
2022/07/13 04:08:47;;;;;;;2.15;0.55;;;16.00;94.80;;;;;;4983635;28;20035;-62
2022/07/13 04:11:15;;;;;;;0.88;0.60;;;16.00;94.80;;;;;;4987010;28;20030;-61
2022/07/13 04:13:42;;;;;;;3.63;0.55;;;15.90;94.80;;;;;;4985208;28;20022;-63
2022/07/13 04:16:09;;;;;;;3.53;0.80;;;16.00;94.90;;;;;;4986358;28;20064;-62
2022/07/13 04:18:36;;;;;;;0.40;0.40;;;16.20;94.80;;;;;;4985635;28;20055;-62
2022/07/13 04:21:05;;;;;;;0.95;0.40;;;16.30;94.70;;;;;;4986018;28;20022;-62
2022/07/13 04:23:33;;;;;;;3.65;0.57;;;16.40;94.50;;;;;;4984414;28;20093;-63
2022/07/13 04:26:00;;;;;;;0.95;0.90;;;16.30;94.50;;;;;;4986266;28;20101;-63
2022/07/13 04:28:28;;;;;;;0.68;0.35;;;16.30;94.40;;;;;;4982812;28;20105;-63
2022/07/13 04:30:55;;;;;;;2.05;0.52;;;16.30;94.00;;;;;;4986284;28;20030;-62
2022/07/13 04:33:22;;;;;;;1.88;0.55;;;16.20;94.20;;;;;;4982278;28;20384;-63
2022/07/13 04:35:50;;;;;;;1.88;0.40;;;16.30;94.50;;;;;;4983065;28;20042;-62
2022/07/13 04:38:17;;;;;;;1.27;0.50;;;16.50;94.20;;;;;;4982367;28;20492;-63
2022/07/13 04:40:46;;;;;;;3.88;0.88;;;16.60;93.60;;;;;;4981227;28;20042;-61
2022/07/13 04:43:13;;;;;;;0.40;0.40;;;16.90;94.00;;;;;;4983100;28;20049;-63
2022/07/13 04:45:40;;;;;;;1.27;0.47;;;17.20;93.30;;;;;;4982867;28;20092;-63
2022/07/13 04:48:08;;;;;;;2.67;0.77;;;17.40;92.90;;;;;;4983132;28;20520;-63
2022/07/13 04:50:35;;;;;;;0.50;0.40;;;17.50;93.30;;;;;;4983397;28;20038;-62
2022/07/13 04:53:02;;;;;;;2.63;0.85;;;17.30;92.40;;;;;;4981250;28;20209;-61
2022/07/13 04:55:29;;;;;;;1.58;0.47;;;16.90;92.60;;;;;;4981891;28;20036;-63
2022/07/13 04:57:57;;;;;;;0.82;0.60;;;16.40;93.10;;;;;;4982864;28;20026;-62
2022/07/13 05:00:25;;;;;;;1.40;0.57;;;16.20;93.80;;;;;;4981982;28;20070;-63
2022/07/13 05:02:52;;;;;;;1.33;0.50;;;16.20;93.40;;;;;;4981199;28;20035;-63
2022/07/13 05:05:19;;;;;;;2.55;0.52;;;16.10;93.80;;;;;;4982907;28;20107;-61
2022/07/13 05:07:46;;;;;;;1.40;0.65;;;16.00;94.00;;;;;;4983335;28;20022;-63
2022/07/13 05:10:13;;;;;;;1.15;0.55;;;16.00;93.90;;;;;;4982338;28;20022;-62
2022/07/13 05:12:42;;;;;;;1.58;0.63;;;16.00;94.10;;;;;;4982269;28;20053;-63
2022/07/13 05:15:11;;;;;;;3.47;0.70;;;15.90;94.20;;;;;;4982586;28;20018;-62
2022/07/13 05:17:38;;;;;;;0.80;0.57;;;15.70;94.50;;;;;;4982690;28;20030;-63
2022/07/13 05:20:06;;;;;;;0.80;0.40;;;15.60;94.30;;;;;;4982267;28;20153;-64
2022/07/13 05:22:34;;;;;;;1.98;0.63;;;15.50;95.10;;;;;;4980889;28;20458;-62
2022/07/13 05:25:01;;;;;;;0.90;0.50;;;15.40;95.40;;;;;;4980408;28;20033;-63
2022/07/13 05:27:28;;;;;;;0.65;0.50;;;15.40;94.80;;;;;;4982341;28;20026;-63
2022/07/13 05:29:55;;;;;;;2.40;0.40;;;15.40;95.20;;;;;;4966791;28;20363;-62
2022/07/13 05:32:22;;;;;;;1.67;0.90;;;15.30;95.60;;;;;;4981104;28;20026;-63
2022/07/13 05:34:49;;;;;;;0.90;0.60;;;15.40;96.20;;;;;;4981513;28;20457;-63
2022/07/13 05:37:26;;;;;;;0.50;0.50;;;15.40;95.50;;;;;;4982834;28;20080;-63
2022/07/13 05:39:53;;;;;;;1.65;0.60;;;15.40;95.70;;;;;;4983162;28;20042;-63
2022/07/13 05:42:20;;;;;;;3.15;0.55;;;15.30;95.60;;;;;;4983303;28;20445;-63
2022/07/13 05:44:47;;;;;;;2.28;0.52;;;15.10;95.90;;;;;;4982784;28;20066;-64
2022/07/13 05:47:14;;;;;;;0.80;0.65;;;15.00;96.40;;;;;;4982356;28;20189;-62
2022/07/13 05:49:41;;;;;;;0.70;0.70;;;15.00;96.70;;;;;;4981985;28;20033;-63
2022/07/13 05:52:08;;;;;;;0.98;0.60;;;14.90;96.90;;;;;;4981552;28;20361;-63
2022/07/13 05:54:35;;;;;;;1.52;0.43;;;14.80;96.50;;;;;;4981959;28;20061;-64
2022/07/13 05:57:03;;;;;;;0.45;0.40;;;14.70;97.30;;;;;;4983174;28;20541;-64
2022/07/13 05:59:32;;;;;;;1.35;0.98;;;14.70;97.10;;;;;;4982686;28;20031;-63
2022/07/13 06:02:02;;;;;;;1.13;0.70;;;14.70;97.10;;;;;;4983464;28;20433;-64
2022/07/13 06:04:29;;;;;;;3.85;0.70;;;14.60;97.10;;;;;;4984804;28;20445;-64
2022/07/13 06:06:57;;;;;;;2.05;0.60;;;14.50;97.00;;;;;;4986430;28;20022;-64
2022/07/13 06:09:24;;;;;;;1.33;0.60;;;14.40;97.60;;;;;;4985143;28;20053;-62
2022/07/13 06:11:51;;;;;;;3.22;1.17;;;14.50;97.40;;;;;;4986676;28;20168;-63
2022/07/13 06:14:18;;;;;;;2.22;0.68;;;14.40;97.10;;;;;;4985926;28;20026;-64
2022/07/13 06:16:45;;;;;;;0.85;0.60;;;14.30;97.20;;;;;;4985823;28;20034;-63
2022/07/13 06:19:12;;;;;;;3.38;0.68;;;14.30;97.60;;;;;;4986856;28;20018;-64
2022/07/13 06:21:39;;;;;;;1.13;0.60;;;14.30;98.10;;;;;;4988631;28;20161;-64
2022/07/13 06:24:07;;;;;;;1.42;0.75;;;14.30;98.00;;;;;;4987806;28;20046;-63
2022/07/13 06:26:37;;;;;;;1.13;0.50;;;14.20;97.40;;;;;;4988191;28;20493;-64
2022/07/13 06:29:05;;;;;;;1.80;0.73;;;14.20;97.90;;;;;;4988738;28;20030;-63
2022/07/13 06:31:32;;;;;;;1.27;0.60;;;14.00;98.00;;;;;;4988618;28;20400;-63
2022/07/13 06:33:59;;;;;;;3.08;0.88;;;14.00;98.40;;;;;;4986440;28;20477;-64
2022/07/13 06:36:27;;;;;;;0.45;0.40;;;14.10;98.20;;;;;;4986248;28;20156;-62
2022/07/13 06:38:54;;;;;;;1.98;0.90;;;14.00;98.70;;;;;;4986148;28;20030;-62
2022/07/13 06:41:21;;;;;;;1.52;0.80;;;13.90;98.60;;;;;;4987422;28;20381;-62
2022/07/13 06:43:48;;;;;;;1.40;0.65;;;13.90;99.10;;;;;;4987463;28;20046;-64
2022/07/13 06:46:15;;;;;;;0.77;0.57;;;13.80;98.20;;;;;;4985537;28;20065;-63
2022/07/13 06:48:42;;;;;;;0.75;0.50;;;13.80;98.20;;;;;;4987510;28;20029;-64
2022/07/13 06:51:09;;;;;;;2.88;0.80;;;13.70;98.40;;;;;;4984886;28;20085;-64
2022/07/13 06:53:36;;;;;;;0.73;0.45;;;13.70;98.60;;;;;;4981818;28;20281;-64
2022/07/13 06:56:04;;;;;;;2.50;1.02;;;13.60;98.40;;;;;;4984470;28;20030;-65
2022/07/13 06:58:31;;;;;;;1.33;0.80;;;13.50;98.90;;;;;;4985445;28;20108;-67
2022/07/13 07:00:58;;;;;;;1.90;0.50;;;13.50;98.80;;;;;;4985077;28;20538;-62
2022/07/13 07:03:26;;;;;;;2.67;0.70;;;13.40;98.80;;;;;;4984200;28;20209;-65
2022/07/13 07:05:53;;;;;;;1.27;0.68;;;13.40;98.90;;;;;;4979904;28;20030;-65
2022/07/13 07:08:20;;;;;;;1.33;0.65;;;13.40;98.90;;;;;;4981168;28;20452;-64
2022/07/13 07:10:48;;;;;;;1.70;0.70;;;13.30;99.10;;;;;;4985017;28;20029;-63
2022/07/13 07:13:15;;;;;;;2.00;0.60;;;13.20;99.70;;;;;;4984529;28;20034;-62
2022/07/13 07:15:42;;;;;;;1.48;0.70;;;13.10;99.40;;;;;;4979736;28;20141;-62
2022/07/13 07:18:10;;;;;;;1.40;0.75;;;13.00;99.90;;;;;;4981745;28;20049;-63
2022/07/13 07:20:37;;;;;;;1.00;0.80;;;12.90;99.90;;;;;;4981774;28;20026;-64
2022/07/13 07:23:05;;;;;;;4.40;0.82;;;12.90;99.90;;;;;;4983039;28;20714;-61
2022/07/13 07:25:32;;;;;;;1.65;0.70;;;12.80;99.90;;;;;;4983725;28;20361;-63
2022/07/13 07:27:59;;;;;;;2.13;0.80;;;12.70;99.90;;;;;;4981739;28;20529;-63
2022/07/13 07:30:26;;;;;;;3.13;1.08;;;12.70;99.90;;;;;;4981728;28;20112;-64
2022/07/13 07:32:53;;;;;;;3.17;0.80;;;12.60;99.90;;;;;;4984167;28;20065;-64
2022/07/13 07:35:21;;;;;;;2.42;1.75;;;12.50;99.90;;;;;;4982335;28;20025;-62
2022/07/13 07:37:48;;;;;;;2.03;0.80;;;12.60;99.90;;;;;;4978890;28;20045;-62
2022/07/13 07:40:15;;;;;;;3.78;0.85;;;12.40;99.90;;;;;;4982191;28;20046;-65
2022/07/13 07:42:42;;;;;;;0.57;0.57;;;12.40;99.90;;;;;;4982872;28;20027;-63
2022/07/13 07:45:10;;;;;;;1.23;0.75;;;12.30;99.90;;;;;;4983902;28;20049;-62
2022/07/13 07:47:38;;;;;;;1.42;1.10;;;12.30;99.90;;;;;;4984258;28;20106;-63
2022/07/13 07:50:07;;;;;;;4.18;0.80;;;12.30;99.90;;;;;;4982791;28;20030;-63
2022/07/13 07:52:34;;;;;;;1.50;1.10;;;12.20;99.90;;;;;;4981177;28;20026;-63
2022/07/13 07:55:01;;;;;;;1.52;0.95;;;12.10;99.90;;;;;;4983039;28;20058;-63
2022/07/13 07:57:28;;;;;;;5.88;4.07;;;12.10;99.90;;;;;;4984291;28;20027;-66
2022/07/13 07:59:56;;;;;;;2.10;0.95;;;12.10;99.90;;;;;;4981566;28;20026;-62
2022/07/13 08:02:23;;;;;;;2.85;0.88;;;12.10;99.90;;;;;;4980654;28;20037;-62
2022/07/13 08:04:50;;;;;;;5.43;1.50;;;12.20;99.90;;;;;;4980604;28;20140;-63
2022/07/13 08:07:17;;;;;;;2.53;1.40;;;12.10;99.90;;;;;;4979910;28;20202;-64
2022/07/13 08:09:44;;;;;;;30.45;18.92;;;12.10;99.90;;;;;;4984019;28;20080;-63
2022/07/13 08:12:12;;;;;;;5.47;2.20;;;12.20;99.90;;;;;;4984088;28;20030;-63
2022/07/13 08:14:39;;;;;;;3.78;1.10;;;12.20;99.90;;;;;;4983383;28;20041;-62
2022/07/13 08:17:06;;;;;;;4.97;1.45;;;12.10;99.90;;;;;;4986232;28;20037;-61
2022/07/13 08:19:33;;;;;;;4.13;1.17;;;11.90;99.90;;;;;;4982954;28;20042;-62
2022/07/13 08:22:00;;;;;;;1.98;1.10;;;11.80;99.90;;;;;;4982100;28;20026;-64
2022/07/13 08:24:27;;;;;;;3.33;1.02;;;11.80;99.90;;;;;;4983084;28;20491;-62
2022/07/13 08:26:54;;;;;;;1.52;1.17;;;11.80;99.90;;;;;;4980433;28;20027;-62
2022/07/13 08:29:23;;;;;;;2.42;0.98;;;11.70;99.90;;;;;;4980986;28;20105;-61
2022/07/13 08:31:50;;;;;;;1.70;0.82;;;11.70;99.90;;;;;;4979189;28;20035;-64
2022/07/13 08:39:47;;;;;;;3.13;2.17;;;11.80;99.90;;;;;;4976812;28;20378;-63
2022/07/13 08:42:15;;;;;;;1.92;0.80;;;11.60;99.90;;;;;;4980131;28;20034;-64
2022/07/13 08:44:42;;;;;;;0.85;0.60;;;11.70;99.90;;;;;;4982830;28;20254;-64
2022/07/13 08:47:11;;;;;;;3.50;0.88;;;11.60;99.90;;;;;;4977556;28;20772;-61
2022/07/13 08:49:38;;;;;;;2.55;0.95;;;11.60;99.90;;;;;;4979216;28;20235;-60
2022/07/13 08:52:06;;;;;;;1.55;0.80;;;11.70;99.90;;;;;;4977853;28;20113;-61
2022/07/13 08:54:34;;;;;;;1.17;0.80;;;11.70;99.90;;;;;;4980336;28;20111;-63
2022/07/13 08:57:01;;;;;;;1.13;0.65;;;11.70;99.90;;;;;;4980132;28;20030;-62
2022/07/13 08:59:28;;;;;;;5.45;1.02;;;11.80;99.90;;;;;;4980336;28;20483;-63
2022/07/13 09:01:56;;;;;;;1.75;0.77;;;11.80;99.90;;;;;;4982005;28;20101;-61
2022/07/13 09:04:23;;;;;;;3.38;1.10;;;11.90;99.90;;;;;;4979327;28;20072;-61
2022/07/13 09:06:50;;;;;;;5.07;1.02;;;11.90;99.90;;;;;;4976954;28;20037;-63
2022/07/13 09:09:35;;;;;;;2.75;1.10;;;11.80;99.90;;;;;;4978187;28;20466;-65
2022/07/13 09:12:17;;;;;;;1.70;0.95;;;11.70;99.90;;;;;;4979006;28;20329;-62
2022/07/13 09:15:08;;;;;;;2.05;1.00;;;11.60;99.90;;;;;;4979375;28;20171;-63
2022/07/13 09:17:42;;;;;;;1.85;1.13;;;11.70;99.90;;;;;;4978648;28;20617;-64
2022/07/13 09:20:18;;;;;;;3.42;1.95;;;11.60;99.90;;;;;;4977900;28;20030;-64
2022/07/13 09:22:58;;;;;;;1.55;1.30;;;11.60;99.90;;;;;;4975953;28;20121;-63
2022/07/13 09:25:39;;;;;;;1.20;1.00;;;11.60;99.90;;;;;;4974870;28;20682;-64
2022/07/13 09:28:08;;;;;;;2.13;0.93;;;11.50;99.90;;;;;;4975474;28;20536;-62
2022/07/13 09:30:41;;;;;;;1.83;1.20;;;11.50;99.90;;;;;;4973879;28;20030;-62
2022/07/13 09:33:08;;;;;;;1.77;1.30;;;11.50;99.90;;;;;;4974837;28;20395;-62
2022/07/13 09:35:44;;;;;;;1.55;1.08;;;11.40;99.90;;;;;;4977232;28;20034;-65
2022/07/13 09:38:34;;;;;;;1.80;1.17;;;11.40;99.90;;;;;;4976544;28;20042;-65
2022/07/13 09:41:16;;;;;;;1.88;1.02;;;11.40;99.90;;;;;;4981963;28;20038;-64
2022/07/13 09:47:00;;;;;;;2.55;1.60;;;11.30;99.90;;;;;;4979916;28;20041;-63
2022/07/13 09:49:44;;;;;;;3.97;1.48;;;11.40;99.90;;;;;;4979361;28;20114;-65
2022/07/13 09:52:19;;;;;;;1.95;1.38;;;11.30;99.90;;;;;;4978344;28;20026;-67
2022/07/13 09:54:51;;;;;;;7.88;5.38;;;11.40;99.90;;;;;;4979630;28;20585;-65
2022/07/13 09:57:19;;;;;;;;;;;11.40;99.90;;;;;;4978845;28;20025;-64
2022/07/13 09:59:46;;;;;;;2.65;1.40;;;11.60;99.90;;;;;;4978739;28;19925;-64
2022/07/13 10:02:16;;;;;;;3.22;1.25;;;11.60;99.90;;;;;;4978338;28;20022;-65
2022/07/13 10:04:46;;;;;;;2.42;1.48;;;11.50;99.90;;;;;;4975582;28;20030;-66
2022/07/13 10:07:14;;;;;;;4.57;1.20;;;11.40;99.90;;;;;;4974264;28;20105;-66
2022/07/13 10:09:42;;;;;;;1.48;1.10;;;11.30;99.90;;;;;;4975543;28;20034;-66
2022/07/13 10:12:11;;;;;;;3.33;1.60;;;11.30;99.90;;;;;;4980157;28;20034;-67
2022/07/13 10:14:39;;;;;;;1.08;0.80;;;11.30;99.90;;;;;;4978566;28;20030;-65
2022/07/13 10:17:26;;;;;;;2.33;1.45;;;11.30;99.90;;;;;;4979501;28;20022;-65
2022/07/13 10:20:21;;;;;;;2.50;1.40;;;11.30;99.90;;;;;;4977635;28;20065;-67
2022/07/13 10:22:49;;;;;;;3.28;1.70;;;11.30;99.90;;;;;;4978295;28;20042;-65
2022/07/13 10:25:23;;;;;;;4.43;2.05;;;11.20;99.90;;;;;;4979712;28;20029;-66
2022/07/13 10:28:18;;;;;;;3.00;2.10;;;11.20;99.90;;;;;;4979446;28;20564;-64
2022/07/13 10:30:46;;;;;;;3.90;1.75;;;11.10;99.90;;;;;;4977654;28;20035;-64
2022/07/13 10:33:27;;;;;;;2.92;2.25;;;11.10;99.90;;;;;;4978977;28;20033;-66
2022/07/13 10:35:57;;;;;;;4.18;2.05;;;11.10;99.90;;;;;;4978686;28;20042;-65
2022/07/13 10:38:28;;;;;;;5.30;2.50;;;11.00;99.90;;;;;;4980116;28;20485;-64
2022/07/13 10:41:21;;;;;;;3.30;1.75;;;10.90;99.90;;;;;;4979031;28;20054;-65
2022/07/13 10:44:49;;;;;;;2.75;1.42;;;10.90;99.90;;;;;;4980652;28;20037;-65
2022/07/13 10:47:20;;;;;;;3.05;2.05;;;10.80;99.90;;;;;;4825779;29;20049;-70
2022/07/13 10:49:47;;;;;;;4.03;2.03;;;10.70;99.90;;;;;;4826108;29;20415;-68
2022/07/13 10:52:21;;;;;;;4.72;3.47;;;10.60;99.90;;;;;;4821187;29;20521;-69
2022/07/13 10:57:38;;;;;;;2.55;1.85;;;10.60;99.90;;;;;;4826016;29;20033;-66
2022/07/13 11:00:19;;;;;;;2.88;1.65;;;10.50;99.90;;;;;;4826637;29;20057;-65
2022/07/13 11:02:50;;;;;;;2.03;1.52;;;10.50;99.90;;;;;;4811194;29;20155;-70
2022/07/13 11:05:26;;;;;;;1.83;1.60;;;10.50;99.90;;;;;;4823987;29;20034;-67
2022/07/13 11:07:54;;;;;;;3.13;2.33;;;10.40;99.90;;;;;;4827512;29;20093;-64
2022/07/13 11:10:30;;;;;;;3.00;1.85;;;10.30;99.90;;;;;;4827129;29;20590;-66
2022/07/13 11:13:12;;;;;;;3.60;2.17;;;10.30;99.90;;;;;;4825298;29;20092;-65
2022/07/13 11:15:53;;;;;;;3.30;2.77;;;10.40;99.90;;;;;;4816718;29;20052;-62
2022/07/13 11:18:24;;;;;;;2.53;1.90;;;10.40;99.90;;;;;;4824005;29;20038;-62
2022/07/13 11:21:06;;;;;;;2.45;1.60;;;10.40;99.90;;;;;;4822393;29;20048;-63
2022/07/13 11:26:49;;;;;;;2.03;1.70;;;10.40;99.90;;;;;;4916500;29;20358;-64
2022/07/13 11:29:55;;;;;;;2.50;2.00;;;10.40;99.90;;;;;;4917323;29;20594;-63
2022/07/13 11:32:23;;;;;;;2.85;2.22;;;10.50;99.90;;;;;;4913342;29;20044;-63
2022/07/13 11:34:50;;;;;;;3.28;1.90;;;10.50;99.90;;;;;;4919607;29;20047;-63
2022/07/13 11:37:26;;;;;;;2.20;1.73;;;10.50;99.90;;;;;;4916025;29;20529;-64
2022/07/13 11:39:53;;;;;;;3.17;1.90;;;10.50;99.90;;;;;;4918706;29;20530;-62
2022/07/13 11:42:24;;;;;;;4.57;2.25;;;10.60;99.90;;;;;;4913903;29;20506;-63
2022/07/13 11:44:52;;;;;;;3.97;2.80;;;10.70;99.90;;;;;;4921553;29;20891;-63
2022/07/13 11:47:19;;;;;;;3.85;2.28;;;10.60;99.90;;;;;;4913760;29;20361;-63
2022/07/13 11:49:49;;;;;;;4.07;2.70;;;10.70;99.90;;;;;;4917705;29;20050;-64
2022/07/13 11:52:28;;;;;;;3.40;2.00;;;10.70;99.90;;;;;;4915689;29;20039;-63
2022/07/13 11:55:00;;;;;;;5.45;2.03;;;10.80;99.90;;;;;;4917267;29;20032;-64
2022/07/13 11:57:28;;;;;;;2.83;1.70;;;10.80;99.90;;;;;;4915361;29;20815;-63
2022/07/13 12:00:08;;;;;;;2.42;1.70;;;10.70;99.90;;;;;;4919141;29;20032;-65
2022/07/13 12:02:36;;;;;;;3.05;1.55;;;10.60;99.90;;;;;;4918455;29;20114;-63
2022/07/13 12:05:04;;;;;;;2.72;1.70;;;10.60;99.90;;;;;;4941259;29;20039;-64
2022/07/13 12:07:31;;;;;;;3.38;1.90;;;10.60;99.90;;;;;;4938677;28;20033;-65
2022/07/13 12:10:01;;;;;;;2.03;1.65;;;10.60;99.90;;;;;;4940888;29;20089;-62
2022/07/13 12:12:37;;;;;;;2.50;1.40;;;10.60;99.90;;;;;;4940568;28;20035;-65
2022/07/13 12:15:05;;;;;;;3.80;1.55;;;10.60;99.90;;;;;;4939337;28;20043;-64
2022/07/13 12:17:43;;;;;;;2.42;1.55;;;10.50;99.90;;;;;;4936167;29;20183;-64
2022/07/13 12:20:15;;;;;;;1.63;1.30;;;10.50;99.90;;;;;;4935810;29;20625;-65
2022/07/13 12:22:57;;;;;;;2.45;1.40;;;10.50;99.90;;;;;;4936213;29;20043;-65
2022/07/13 12:25:34;;;;;;;1.80;1.20;;;10.60;99.90;;;;;;4938279;28;20492;-63
2022/07/13 12:28:04;;;;;;;2.28;1.33;;;10.60;99.90;;;;;;4935853;28;20089;-65
2022/07/13 12:30:34;;;;;;;2.30;0.93;;;10.60;99.90;;;;;;4938230;29;20039;-65
2022/07/13 12:33:02;;;;;;;0.73;0.70;;;10.50;99.90;;;;;;4942375;29;20031;-65
2022/07/13 12:35:37;;;;;;;1.48;1.20;;;10.50;99.90;;;;;;4938854;28;20119;-65
2022/07/13 12:38:11;;;;;;;1.33;1.20;;;10.50;99.90;;;;;;4939878;29;20494;-64
2022/07/13 12:40:43;;;;;;;13.48;6.53;;;10.60;99.90;;;;;;4963146;28;20545;-66
2022/07/13 12:43:25;;;;;;;2.13;1.52;;;10.50;99.90;;;;;;4978984;28;20118;-66
2022/07/13 12:46:04;;;;;;;1.40;1.00;;;10.50;99.90;;;;;;4980212;28;20193;-66
2022/07/13 12:48:33;;;;;;;1.60;0.90;;;10.40;99.90;;;;;;4983086;28;20026;-63
2022/07/13 12:51:01;;;;;;;7.25;1.10;;;10.40;99.90;;;;;;4975820;28;20046;-66
2022/07/13 12:53:51;;;;;;;2.42;1.10;;;10.40;99.90;;;;;;4987678;28;20101;-66
2022/07/13 12:56:24;;;;;;;2.70;1.27;;;10.40;99.90;;;;;;4978232;28;20034;-64
2022/07/13 12:58:55;;;;;;;1.27;1.00;;;10.40;99.90;;;;;;4974885;28;20494;-64
2022/07/13 13:01:35;;;;;;;1.70;1.00;;;10.30;99.90;;;;;;4978557;28;20035;-63
2022/07/13 13:04:10;;;;;;;1.48;1.30;;;10.40;99.90;;;;;;4973262;28;20401;-66
2022/07/13 13:06:42;;;;;;;1.45;1.00;;;10.50;99.90;;;;;;4988622;28;20534;-64
2022/07/13 13:09:12;;;;;;;2.25;1.40;;;10.50;99.90;;;;;;4981161;28;20027;-65
2022/07/13 13:11:41;;;;;;;1.52;1.10;;;10.50;99.90;;;;;;4987170;28;20497;-62
2022/07/13 13:14:09;;;;;;;1.98;1.27;;;10.60;99.90;;;;;;4980117;28;20030;-63
2022/07/13 13:16:37;;;;;;;1.40;1.10;;;10.60;99.90;;;;;;4988556;28;20022;-66